createdAt,value
2019-04-28T00:02:01.312Z,9.50
2019-04-28T00:04:51.431Z,9.50
2019-04-28T00:07:41.148Z,9.50
2019-04-28T00:10:32.077Z,9.50
2019-04-28T00:13:21.243Z,9.60
2019-04-28T00:16:11.574Z,9.50
2019-04-28T00:19:01.357Z,9.50
2019-04-28T00:21:51.847Z,9.50
2019-04-28T00:24:48.150Z,9.60
2019-04-28T00:27:37.477Z,9.60
2019-04-28T00:30:26.668Z,9.60
2019-04-28T00:33:16.038Z,9.60
2019-04-28T00:36:05.096Z,9.60
2019-04-28T00:38:54.461Z,9.60
2019-04-28T00:41:43.539Z,9.60
2019-04-28T00:44:32.677Z,9.60
2019-04-28T00:47:21.918Z,9.70
2019-04-28T00:50:11.809Z,9.70
2019-04-28T00:53:01.865Z,9.70
2019-04-28T00:55:51.634Z,9.70
2019-04-28T00:58:41.792Z,9.70
2019-04-28T01:01:32.888Z,9.70
2019-04-28T01:04:22.302Z,9.70
2019-04-28T01:07:11.737Z,9.60
2019-04-28T01:10:01.409Z,9.60
2019-04-28T01:12:51.148Z,9.60
2019-04-28T01:15:41.802Z,9.60
2019-04-28T01:18:35.077Z,9.60
2019-04-28T01:21:25.532Z,9.60
2019-04-28T01:24:14.459Z,9.60
2019-04-28T01:27:05.605Z,9.60
2019-04-28T01:30:05.358Z,9.60
2019-04-28T01:32:46.516Z,9.60
2019-04-28T01:35:35.178Z,9.60
2019-04-28T01:38:24.205Z,9.60
2019-04-28T01:41:13.321Z,9.60
2019-04-28T01:44:02.143Z,9.60
2019-04-28T01:46:51.179Z,9.60
2019-04-28T01:49:40.689Z,9.60
2019-04-28T01:52:30.370Z,9.60
2019-04-28T01:55:20.085Z,9.60
2019-04-28T01:58:09.619Z,9.60
2019-04-28T02:00:59.727Z,9.50
2019-04-28T02:03:50.234Z,9.50
2019-04-28T02:06:39.942Z,9.60
2019-04-28T02:09:29.760Z,9.50
2019-04-28T02:12:20.374Z,9.60
2019-04-28T02:15:10.429Z,9.60
2019-04-28T02:18:00.297Z,9.60
2019-04-28T02:20:51.151Z,9.50
2019-04-28T02:23:40.198Z,9.50
2019-04-28T02:26:29.599Z,9.40
2019-04-28T02:29:20.161Z,9.40
2019-04-28T02:32:11.101Z,9.40
2019-04-28T02:35:01.635Z,9.30
2019-04-28T02:37:51.325Z,9.30
2019-04-28T02:40:40.722Z,9.30
2019-04-28T02:43:30.819Z,9.30
2019-04-28T02:46:20.997Z,9.30
2019-04-28T02:49:11.518Z,9.30
2019-04-28T02:52:03.014Z,9.20
2019-04-28T02:54:52.804Z,9.30
2019-04-28T02:57:42.141Z,9.30
2019-04-28T03:00:32.011Z,9.20
2019-04-28T03:03:21.326Z,9.20
2019-04-28T03:06:10.820Z,9.20
2019-04-28T03:09:00.721Z,9.20
2019-04-28T03:11:51.201Z,9.20
2019-04-28T03:14:44.120Z,9.20
2019-04-28T03:17:32.051Z,9.20
2019-04-28T03:20:21.452Z,9.20
2019-04-28T03:23:12.398Z,9.20
2019-04-28T03:26:11.373Z,9.20
2019-04-28T03:29:07.885Z,9.20
2019-04-28T03:32:16.126Z,9.20
2019-04-28T03:34:54.552Z,9.20
2019-04-28T03:37:44.430Z,9.20
2019-04-28T03:40:33.812Z,9.10
2019-04-28T03:43:23.254Z,9.10
2019-04-28T03:46:13.861Z,9.10
2019-04-28T03:49:03.360Z,9.10
2019-04-28T03:51:52.375Z,9.00
2019-04-28T03:54:41.369Z,9.00
2019-04-28T03:57:31.319Z,9.00
2019-04-28T04:00:22.008Z,9.00
2019-04-28T04:03:11.736Z,9.00
2019-04-28T04:06:01.015Z,9.00
2019-04-28T04:08:50.722Z,9.00
2019-04-28T04:11:43.942Z,9.00
2019-04-28T04:14:41.187Z,9.00
2019-04-28T04:17:34.547Z,9.00
2019-04-28T04:20:26.683Z,9.00
2019-04-28T04:23:15.990Z,9.00
2019-04-28T04:26:05.014Z,9.00
2019-04-28T04:28:53.569Z,9.00
2019-04-28T04:31:42.585Z,9.00
2019-04-28T04:34:31.654Z,9.00
2019-04-28T04:37:20.591Z,9.00
2019-04-28T04:40:13.155Z,9.00
2019-04-28T04:43:01.597Z,9.00
2019-04-28T04:45:53.346Z,9.00
2019-04-28T04:48:46.343Z,9.00
2019-04-28T04:51:35.320Z,9.00
2019-04-28T04:54:24.755Z,9.10
2019-04-28T04:57:13.971Z,9.10
2019-04-28T05:00:07.163Z,9.10
2019-04-28T05:02:57.362Z,9.20
2019-04-28T05:05:46.344Z,9.10
2019-04-28T05:08:35.159Z,9.20
2019-04-28T05:11:24.321Z,9.20
2019-04-28T05:14:13.384Z,9.20
2019-04-28T05:17:02.899Z,9.30
2019-04-28T05:19:51.681Z,9.20
2019-04-28T05:22:42.645Z,9.30
2019-04-28T05:25:35.907Z,9.30
2019-04-28T05:28:24.361Z,9.30
2019-04-28T05:31:20.010Z,9.30
2019-04-28T05:34:08.172Z,9.30
2019-04-28T05:36:55.747Z,9.30
2019-04-28T05:39:45.355Z,9.30
2019-04-28T05:42:34.009Z,9.20
2019-04-28T05:45:23.273Z,9.20
2019-04-28T05:48:12.567Z,9.20
2019-04-28T05:51:03.070Z,9.30
2019-04-28T05:53:56.480Z,9.30
2019-04-28T05:57:02.450Z,9.30
2019-04-28T06:00:05.141Z,9.40
2019-04-28T06:03:02.026Z,9.50
2019-04-28T06:05:51.053Z,9.50
2019-04-28T06:08:50.993Z,9.60
2019-04-28T06:11:41.727Z,9.60
2019-04-28T06:14:30.933Z,9.70
2019-04-28T06:17:20.586Z,9.60
2019-04-28T06:20:11.805Z,9.50
2019-04-28T06:23:00.900Z,9.40
2019-04-28T06:25:50.303Z,9.40
2019-04-28T06:28:39.284Z,9.40
2019-04-28T06:31:28.314Z,9.40
2019-04-28T06:34:17.214Z,9.30
2019-04-28T06:37:06.615Z,9.30
2019-04-28T06:39:55.183Z,9.30
2019-04-28T06:42:44.326Z,9.30
2019-04-28T06:45:32.771Z,9.20
2019-04-28T06:48:21.851Z,9.20
2019-04-28T06:51:10.453Z,9.30
2019-04-28T06:53:59.207Z,9.30
2019-04-28T06:56:48.397Z,9.30
2019-04-28T06:59:36.963Z,9.30
2019-04-28T07:02:26.371Z,9.30
2019-04-28T07:05:15.249Z,9.40
2019-04-28T07:08:04.155Z,9.50
2019-04-28T07:10:52.702Z,9.50
2019-04-28T07:13:41.466Z,9.50
2019-04-28T07:16:30.756Z,9.50
2019-04-28T07:19:19.855Z,9.50
2019-04-28T07:22:25.845Z,9.50
2019-04-28T07:25:14.327Z,9.50
2019-04-28T07:28:04.550Z,9.50
2019-04-28T07:30:53.733Z,9.40
2019-04-28T07:33:42.679Z,9.40
2019-04-28T07:36:31.706Z,9.40
2019-04-28T07:39:20.889Z,9.40
2019-04-28T07:42:10.242Z,9.40
2019-04-28T07:44:59.308Z,9.40
2019-04-28T07:47:47.959Z,9.40
2019-04-28T07:50:36.386Z,9.50
2019-04-28T07:53:33.065Z,9.60
2019-04-28T07:56:22.117Z,9.60
2019-04-28T07:59:12.685Z,9.80
2019-04-28T08:02:01.870Z,9.90
2019-04-28T08:04:51.100Z,9.90
2019-04-28T08:07:40.448Z,9.80
2019-04-28T08:10:29.117Z,9.80
2019-04-28T08:13:18.119Z,9.80
2019-04-28T08:16:06.621Z,9.70
2019-04-28T08:18:55.439Z,9.70
2019-04-28T08:21:43.939Z,9.70
2019-04-28T08:24:32.568Z,9.70
2019-04-28T08:27:21.331Z,9.60
2019-04-28T08:30:10.503Z,9.70
2019-04-28T08:33:17.538Z,9.70
2019-04-28T08:36:06.514Z,9.80
2019-04-28T08:38:55.668Z,9.70
2019-04-28T08:41:45.004Z,9.60
2019-04-28T08:44:34.234Z,9.60
2019-04-28T08:47:23.234Z,9.60
2019-04-28T08:50:13.140Z,9.60
2019-04-28T08:53:03.421Z,9.50
2019-04-28T08:55:52.483Z,9.60
2019-04-28T08:58:41.652Z,9.50
2019-04-28T09:01:31.037Z,9.60
2019-04-28T09:04:19.799Z,9.60
2019-04-28T09:07:09.663Z,9.60
2019-04-28T09:09:58.752Z,9.70
2019-04-28T09:12:47.842Z,9.70
2019-04-28T09:15:37.005Z,9.90
2019-04-28T09:18:26.236Z,10.00
2019-04-28T09:21:14.720Z,10.10
2019-04-28T09:24:04.247Z,10.20
2019-04-28T09:26:53.252Z,10.20
2019-04-28T09:29:42.159Z,10.40
2019-04-28T09:32:31.078Z,10.50
2019-04-28T09:35:19.985Z,10.70
2019-04-28T09:38:08.913Z,10.70
2019-04-28T09:40:57.820Z,10.70
2019-04-28T09:44:00.996Z,10.70
2019-04-28T09:46:51.446Z,10.60
2019-04-28T09:49:40.606Z,10.50
2019-04-28T09:52:29.066Z,10.50
2019-04-28T09:55:18.401Z,10.40
2019-04-28T09:58:07.517Z,10.30
2019-04-28T10:00:56.531Z,10.30
2019-04-28T10:03:46.069Z,10.60
2019-04-28T10:06:34.863Z,10.80
2019-04-28T10:09:24.121Z,10.90
2019-04-28T10:12:12.664Z,11.20
2019-04-28T10:15:01.764Z,11.40
2019-04-28T10:17:50.493Z,11.60
2019-04-28T10:20:39.702Z,11.80
2019-04-28T10:23:29.126Z,12.00
2019-04-28T10:26:17.691Z,12.20
2019-04-28T10:29:06.984Z,12.30
2019-04-28T10:31:55.776Z,12.30
2019-04-28T10:34:54.682Z,12.50
2019-04-28T10:37:35.322Z,12.60
2019-04-28T10:40:38.796Z,12.70
2019-04-28T10:43:27.608Z,12.40
2019-04-28T10:46:16.703Z,12.20
2019-04-28T10:49:06.119Z,12.10
2019-04-28T10:51:59.416Z,12.20
2019-04-28T10:54:45.735Z,12.30
2019-04-28T10:57:34.862Z,12.30
2019-04-28T11:00:25.661Z,12.20
2019-04-28T11:03:14.562Z,12.00
2019-04-28T11:06:03.655Z,11.90
2019-04-28T11:09:06.602Z,11.90
2019-04-28T11:11:56.009Z,11.80
2019-04-28T11:14:45.131Z,12.00
2019-04-28T11:17:34.532Z,11.90
2019-04-28T11:20:25.272Z,11.70
2019-04-28T11:23:15.243Z,11.60
2019-04-28T11:26:04.128Z,11.60
2019-04-28T11:28:54.115Z,11.60
2019-04-28T11:31:42.816Z,11.80
2019-04-28T11:34:40.085Z,12.00
2019-04-28T11:37:29.065Z,12.70
2019-04-28T11:40:18.479Z,13.00
2019-04-28T11:43:07.567Z,13.20
2019-04-28T11:45:56.543Z,12.90
2019-04-28T11:48:45.656Z,13.20
2019-04-28T11:51:35.215Z,13.20
2019-04-28T11:54:24.274Z,13.10
2019-04-28T11:57:13.698Z,13.00
2019-04-28T12:00:04.286Z,13.10
2019-04-28T12:02:53.255Z,12.90
2019-04-28T12:05:43.620Z,12.80
2019-04-28T12:08:32.999Z,12.80
2019-04-28T12:11:33.153Z,13.00
2019-04-28T12:14:29.048Z,13.30
2019-04-28T12:17:19.792Z,13.40
2019-04-28T12:20:13.896Z,13.40
2019-04-28T12:23:02.765Z,13.10
2019-04-28T12:25:51.748Z,13.00
2019-04-28T12:28:40.900Z,13.10
2019-04-28T12:31:30.062Z,13.30
2019-04-28T12:34:18.974Z,13.30
2019-04-28T12:37:07.972Z,13.30
2019-04-28T12:39:57.026Z,13.50
2019-04-28T12:42:45.995Z,13.50
2019-04-28T12:45:35.674Z,13.80
2019-04-28T12:48:25.225Z,14.10
2019-04-28T12:51:14.364Z,14.20
2019-04-28T12:54:05.246Z,14.30
2019-04-28T12:56:54.501Z,14.20
2019-04-28T12:59:45.200Z,14.20
2019-04-28T13:02:35.537Z,14.30
2019-04-28T13:05:24.568Z,14.20
2019-04-28T13:08:13.363Z,13.80
2019-04-28T13:11:02.216Z,13.90
2019-04-28T13:13:51.364Z,13.90
2019-04-28T13:16:40.524Z,14.00
2019-04-28T13:19:28.964Z,14.10
2019-04-28T13:22:18.039Z,14.30
2019-04-28T13:25:08.099Z,14.00
2019-04-28T13:27:56.873Z,14.10
2019-04-28T13:30:45.927Z,14.10
2019-04-28T13:33:35.071Z,14.00
2019-04-28T13:36:23.998Z,14.10
2019-04-28T13:39:14.534Z,14.10
2019-04-28T13:42:04.185Z,14.30
2019-04-28T13:44:57.779Z,14.30
2019-04-28T13:47:47.964Z,14.40
2019-04-28T13:50:37.731Z,14.50
2019-04-28T13:53:27.162Z,14.60
2019-04-28T13:56:16.298Z,14.70
2019-04-28T13:59:06.665Z,15.00
2019-04-28T14:02:00.024Z,14.70
2019-04-28T14:05:06.104Z,14.60
2019-04-28T14:07:54.921Z,14.70
2019-04-28T14:10:43.994Z,14.90
2019-04-28T14:13:32.790Z,15.00
2019-04-28T14:16:21.757Z,14.70
2019-04-28T14:19:10.463Z,14.80
2019-04-28T14:21:59.331Z,14.60
2019-04-28T14:24:48.216Z,14.50
2019-04-28T14:27:37.680Z,14.60
2019-04-28T14:30:26.822Z,14.60
2019-04-28T14:33:16.657Z,14.50
2019-04-28T14:36:06.476Z,14.40
2019-04-28T14:38:55.642Z,14.20
2019-04-28T14:41:44.844Z,14.20
2019-04-28T14:44:33.973Z,14.10
2019-04-28T14:47:22.982Z,14.10
2019-04-28T14:50:12.154Z,14.30
2019-04-28T14:53:01.785Z,14.10
2019-04-28T14:55:50.570Z,14.10
2019-04-28T14:58:39.655Z,14.20
2019-04-28T15:01:46.990Z,14.30
2019-04-28T15:04:53.617Z,14.30
2019-04-28T15:07:50.377Z,14.30
2019-04-28T15:10:50.009Z,14.40
2019-04-28T15:13:38.945Z,14.40
2019-04-28T15:16:27.923Z,14.50
2019-04-28T15:19:16.672Z,14.20
2019-04-28T15:22:05.785Z,14.40
2019-04-28T15:24:54.959Z,14.40
2019-04-28T15:27:43.792Z,14.20
2019-04-28T15:30:35.114Z,14.10
2019-04-28T15:33:25.719Z,14.10
2019-04-28T15:36:15.091Z,13.90
2019-04-28T15:39:07.420Z,14.00
2019-04-28T15:41:56.576Z,13.90
2019-04-28T15:44:45.677Z,14.00
2019-04-28T15:47:34.701Z,14.00
2019-04-28T15:50:25.299Z,14.10
2019-04-28T15:53:14.857Z,14.20
2019-04-28T15:56:08.418Z,14.40
2019-04-28T15:58:57.442Z,14.20
2019-04-28T16:01:47.428Z,14.00
2019-04-28T16:04:36.474Z,14.00
2019-04-28T16:07:25.828Z,14.00
2019-04-28T16:10:15.300Z,14.10
2019-04-28T16:13:04.439Z,14.20
2019-04-28T16:15:53.435Z,14.20
2019-04-28T16:18:42.867Z,14.20
2019-04-28T16:21:32.148Z,14.30
2019-04-28T16:24:21.206Z,14.10
2019-04-28T16:27:10.396Z,14.00
2019-04-28T16:29:59.960Z,13.90
2019-04-28T16:32:48.977Z,13.50
2019-04-28T16:35:37.762Z,13.50
2019-04-28T16:38:26.826Z,13.50
2019-04-28T16:41:16.566Z,13.50
2019-04-28T16:44:06.050Z,13.50
2019-04-28T16:46:55.810Z,13.40
2019-04-28T16:49:45.012Z,13.20
2019-04-28T16:52:34.302Z,13.20
2019-04-28T16:55:24.986Z,13.20
2019-04-28T16:58:18.506Z,13.20
2019-04-28T17:01:09.240Z,13.20
2019-04-28T17:03:57.976Z,13.30
2019-04-28T17:06:47.253Z,13.20
2019-04-28T17:09:36.544Z,13.00
2019-04-28T17:12:25.485Z,12.90
2019-04-28T17:15:14.728Z,12.80
2019-04-28T17:18:04.080Z,12.80
2019-04-28T17:20:55.015Z,12.80
2019-04-28T17:23:43.968Z,12.80
2019-04-28T17:26:33.480Z,12.70
2019-04-28T17:29:22.529Z,12.60
2019-04-28T17:32:11.389Z,12.50
2019-04-28T17:35:00.511Z,12.50
2019-04-28T17:37:49.767Z,12.50
2019-04-28T17:40:38.798Z,12.30
2019-04-28T17:43:27.944Z,12.20
2019-04-28T17:46:17.296Z,12.10
2019-04-28T17:49:06.701Z,12.10
2019-04-28T17:51:55.947Z,12.00
2019-04-28T17:54:45.210Z,12.00
2019-04-28T17:57:34.875Z,11.80
2019-04-28T18:00:25.885Z,11.80
2019-04-28T18:03:20.090Z,11.70
2019-04-28T18:06:17.441Z,11.70
2019-04-28T18:09:01.967Z,11.70
2019-04-28T18:11:50.877Z,11.60
2019-04-28T18:14:41.892Z,11.50
2019-04-28T18:17:31.202Z,11.40
2019-04-28T18:20:20.243Z,11.30
2019-04-28T18:23:09.105Z,11.20
2019-04-28T18:25:58.005Z,11.10
2019-04-28T18:28:47.263Z,11.10
2019-04-28T18:31:36.315Z,11.00
2019-04-28T18:34:29.807Z,10.90
2019-04-28T18:37:24.252Z,10.90
2019-04-28T18:40:18.230Z,10.80
2019-04-28T18:43:21.105Z,10.70
2019-04-28T18:48:47.292Z,10.50
2019-04-28T18:51:36.366Z,10.50
2019-04-28T18:54:25.915Z,10.50
2019-04-28T18:57:14.947Z,10.40
2019-04-28T19:00:05.172Z,10.30
2019-04-28T19:02:54.484Z,10.20
2019-04-28T19:05:45.404Z,10.20
2019-04-28T19:08:48.523Z,10.10
2019-04-28T19:11:28.047Z,10.10
2019-04-28T19:14:21.848Z,10.00
2019-04-28T19:17:18.751Z,9.90
2019-04-28T19:20:08.413Z,9.80
2019-04-28T19:22:57.177Z,9.80
2019-04-28T19:25:46.307Z,9.90
2019-04-28T19:28:35.574Z,9.80
2019-04-28T19:31:24.416Z,9.80
2019-04-28T19:34:14.004Z,9.70
2019-04-28T19:37:03.154Z,9.70
2019-04-28T19:39:52.962Z,9.60
2019-04-28T19:42:42.256Z,9.60
2019-04-28T19:45:33.226Z,9.60
2019-04-28T19:48:22.594Z,9.60
2019-04-28T19:51:11.976Z,9.60
2019-04-28T19:54:01.404Z,9.50
2019-04-28T19:56:57.637Z,9.50
2019-04-28T20:00:03.955Z,9.50
2019-04-28T20:02:52.412Z,9.40
2019-04-28T20:05:41.370Z,9.40
2019-04-28T20:08:30.062Z,9.30
2019-04-28T20:11:18.999Z,9.30
2019-04-28T20:14:08.477Z,9.30
2019-04-28T20:16:57.300Z,9.20
2019-04-28T20:19:46.972Z,9.20
2019-04-28T20:22:37.499Z,9.20
2019-04-28T20:25:26.870Z,9.10
2019-04-28T20:28:16.090Z,9.10
2019-04-28T20:31:05.417Z,9.10
2019-04-28T20:33:54.361Z,9.00
2019-04-28T20:36:50.452Z,9.00
2019-04-28T20:39:40.382Z,9.00
2019-04-28T20:42:37.561Z,9.00
2019-04-28T20:45:26.607Z,9.00
2019-04-28T20:48:15.700Z,9.00
2019-04-28T20:51:05.037Z,8.90
2019-04-28T20:53:53.698Z,8.90
2019-04-28T20:56:42.880Z,8.90
2019-04-28T20:59:32.133Z,8.80
2019-04-28T21:02:21.269Z,8.80
2019-04-28T21:05:10.371Z,8.70
2019-04-28T21:07:59.453Z,8.70
2019-04-28T21:10:49.005Z,8.70
2019-04-28T21:13:38.049Z,8.70
2019-04-28T21:16:27.444Z,8.60
2019-04-28T21:19:16.709Z,8.60
2019-04-28T21:22:06.405Z,8.50
2019-04-28T21:24:55.453Z,8.50
2019-04-28T21:27:44.393Z,8.50
2019-04-28T21:30:33.378Z,8.40
2019-04-28T21:33:22.291Z,8.40
2019-04-28T21:36:11.591Z,8.40
2019-04-28T21:39:00.240Z,8.40
2019-04-28T21:41:49.429Z,8.30
2019-04-28T21:44:40.413Z,8.30
2019-04-28T21:47:30.807Z,8.30
2019-04-28T21:50:19.591Z,8.20
2019-04-28T21:53:08.882Z,8.20
2019-04-28T21:55:58.348Z,8.20
2019-04-28T21:58:47.555Z,8.10
2019-04-28T22:01:37.078Z,8.10
2019-04-28T22:04:25.821Z,8.10
2019-04-28T22:07:15.214Z,8.10
2019-04-28T22:10:08.084Z,8.00
2019-04-28T22:12:57.467Z,8.00
2019-04-28T22:15:46.806Z,8.00
2019-04-28T22:18:35.956Z,8.00
2019-04-28T22:21:25.241Z,8.00
2019-04-28T22:24:25.111Z,8.00
2019-04-28T22:27:15.688Z,8.00
2019-04-28T22:30:07.196Z,8.00
2019-04-28T22:32:56.696Z,8.00
2019-04-28T22:35:46.137Z,8.00
2019-04-28T22:38:34.774Z,8.00
2019-04-28T22:41:23.846Z,8.00
2019-04-28T22:44:13.544Z,8.00
2019-04-28T22:47:03.000Z,8.10
2019-04-28T22:49:52.460Z,8.10
2019-04-28T22:52:41.445Z,8.10
2019-04-28T22:55:31.853Z,8.10
2019-04-28T22:58:22.526Z,8.10
2019-04-28T23:01:13.046Z,8.00
2019-04-28T23:04:03.629Z,8.00
2019-04-28T23:06:54.441Z,8.00
2019-04-28T23:09:43.161Z,8.00
2019-04-28T23:12:32.672Z,8.00
2019-04-28T23:15:21.257Z,8.00
2019-04-28T23:18:10.288Z,7.90
2019-04-28T23:21:03.335Z,7.90
2019-04-28T23:23:52.665Z,7.80
2019-04-28T23:26:41.682Z,7.90
2019-04-28T23:29:30.812Z,7.90
2019-04-28T23:32:20.116Z,7.90
2019-04-28T23:35:09.387Z,7.90
2019-04-28T23:37:58.653Z,7.80
2019-04-28T23:41:07.592Z,7.80
2019-04-28T23:43:56.921Z,7.90
2019-04-28T23:46:59.129Z,7.80
2019-04-28T23:49:47.741Z,7.80
2019-04-28T23:52:44.209Z,7.80
2019-04-28T23:55:33.314Z,7.80
2019-04-28T23:58:22.573Z,7.80
